createdAt,value
2023-05-18T00:00:10.128Z,988.42
2023-05-18T00:00:41.947Z,988.42
2023-05-18T00:01:13.025Z,988.52
2023-05-18T00:01:45.483Z,988.52
2023-05-18T00:02:17.020Z,988.42
2023-05-18T00:02:50.107Z,988.42
2023-05-18T00:03:21.150Z,988.62
2023-05-18T00:03:53.727Z,988.62
2023-05-18T00:04:25.000Z,988.42
2023-05-18T00:04:57.870Z,988.42
2023-05-18T00:05:29.490Z,988.52
2023-05-18T00:06:01.764Z,988.52
2023-05-18T00:06:33.081Z,988.32
2023-05-18T00:07:05.866Z,988.42
2023-05-18T00:07:37.019Z,988.42
2023-05-18T00:08:09.992Z,988.42
2023-05-18T00:08:41.187Z,988.42
2023-05-18T00:09:13.671Z,988.42
2023-05-18T00:09:45.007Z,988.42
2023-05-18T00:10:18.049Z,988.42
2023-05-18T00:10:48.908Z,988.42
2023-05-18T00:11:21.656Z,988.42
2023-05-18T00:11:53.034Z,988.42
2023-05-18T00:12:25.955Z,988.42
2023-05-18T00:12:57.017Z,988.42
2023-05-18T00:13:29.738Z,988.42
2023-05-18T00:14:01.149Z,988.42
2023-05-18T00:14:33.679Z,988.32
2023-05-18T00:15:06.272Z,988.32
2023-05-18T00:15:37.976Z,988.32
2023-05-18T00:16:09.174Z,988.52
2023-05-18T00:16:41.803Z,988.52
2023-05-18T00:17:13.073Z,988.62
2023-05-18T00:17:45.743Z,988.62
2023-05-18T00:18:16.832Z,988.32
2023-05-18T00:18:49.870Z,988.32
2023-05-18T00:19:21.018Z,988.32
2023-05-18T00:19:53.715Z,988.32
2023-05-18T00:20:25.199Z,988.42
2023-05-18T00:20:57.841Z,988.42
2023-05-18T00:21:29.086Z,988.32
2023-05-18T00:22:01.763Z,988.32
2023-05-18T00:22:33.001Z,988.21
2023-05-18T00:23:05.941Z,988.32
2023-05-18T00:23:36.893Z,988.32
2023-05-18T00:24:09.737Z,988.21
2023-05-18T00:24:41.020Z,988.21
2023-05-18T00:25:14.139Z,988.21
2023-05-18T00:25:44.977Z,988.21
2023-05-18T00:26:17.750Z,988.42
2023-05-18T00:26:49.072Z,988.42
2023-05-18T00:27:21.871Z,988.42
2023-05-18T00:27:53.024Z,988.42
2023-05-18T00:28:25.733Z,988.32
2023-05-18T00:28:57.121Z,988.32
2023-05-18T00:29:29.696Z,988.42
2023-05-18T00:30:02.478Z,988.42
2023-05-18T00:30:33.957Z,988.32
2023-05-18T00:31:04.952Z,988.42
2023-05-18T00:31:37.957Z,988.42
2023-05-18T00:32:09.163Z,988.21
2023-05-18T00:32:41.997Z,988.21
2023-05-18T00:33:13.022Z,988.21
2023-05-18T00:33:45.933Z,988.21
2023-05-18T00:34:17.159Z,988.52
2023-05-18T00:34:49.855Z,988.52
2023-05-18T00:35:21.262Z,988.32
2023-05-18T00:35:53.884Z,988.32
2023-05-18T00:36:24.914Z,988.42
2023-05-18T00:36:57.817Z,988.42
2023-05-18T00:37:28.954Z,988.32
2023-05-18T00:38:02.087Z,988.32
2023-05-18T00:38:32.911Z,988.11
2023-05-18T00:39:05.746Z,988.32
2023-05-18T00:39:37.025Z,988.32
2023-05-18T00:40:09.928Z,988.11
2023-05-18T00:40:40.938Z,988.11
2023-05-18T00:41:13.979Z,988.42
2023-05-18T00:41:45.138Z,988.42
2023-05-18T00:42:17.769Z,988.21
2023-05-18T00:42:48.942Z,988.21
2023-05-18T00:43:21.805Z,988.62
2023-05-18T00:43:52.877Z,988.62
2023-05-18T00:44:25.785Z,988.62
2023-05-18T00:44:57.106Z,988.62
2023-05-18T00:45:31.349Z,988.42
2023-05-18T00:46:00.997Z,988.42
2023-05-18T00:46:33.744Z,988.11
2023-05-18T00:47:05.051Z,988.62
2023-05-18T00:47:37.627Z,988.62
2023-05-18T00:48:09.130Z,988.32
2023-05-18T00:48:41.886Z,988.32
2023-05-18T00:49:13.165Z,988.32
2023-05-18T00:49:45.685Z,988.32
2023-05-18T00:50:17.348Z,988.42
2023-05-18T00:50:49.757Z,988.42
2023-05-18T00:51:20.868Z,988.42
2023-05-18T00:51:53.635Z,988.42
2023-05-18T00:52:24.994Z,988.52
2023-05-18T00:52:57.799Z,988.52
2023-05-18T00:53:29.061Z,988.52
2023-05-18T00:54:01.769Z,988.52
2023-05-18T00:54:33.111Z,988.42
2023-05-18T00:55:05.907Z,988.42
2023-05-18T00:55:36.966Z,988.42
2023-05-18T00:56:09.727Z,988.21
2023-05-18T00:56:40.976Z,988.21
2023-05-18T00:57:13.820Z,988.42
2023-05-18T00:57:45.083Z,988.42
2023-05-18T00:58:17.604Z,988.21
2023-05-18T00:58:49.000Z,988.21
2023-05-18T00:59:21.741Z,988.42
2023-05-18T00:59:53.040Z,988.42
2023-05-18T01:00:26.702Z,988.32
2023-05-18T01:00:57.184Z,988.32
2023-05-18T01:01:29.934Z,988.32
2023-05-18T01:02:00.989Z,988.32
2023-05-18T01:02:33.919Z,988.21
2023-05-18T01:03:05.049Z,988.32
2023-05-18T01:03:37.861Z,988.32
2023-05-18T01:04:09.033Z,988.21
2023-05-18T01:04:41.932Z,988.21
2023-05-18T01:05:13.484Z,988.52
2023-05-18T01:05:45.608Z,988.52
2023-05-18T01:06:16.839Z,988.21
2023-05-18T01:06:49.866Z,988.21
2023-05-18T01:07:20.974Z,988.11
2023-05-18T01:07:53.710Z,988.11
2023-05-18T01:08:24.961Z,988.11
2023-05-18T01:08:58.048Z,988.11
2023-05-18T01:09:28.942Z,988.21
2023-05-18T01:10:02.117Z,988.21
2023-05-18T01:10:33.116Z,988.52
2023-05-18T01:11:05.742Z,988.42
2023-05-18T01:11:36.970Z,988.42
2023-05-18T01:12:10.045Z,988.11
2023-05-18T01:12:41.070Z,988.11
2023-05-18T01:13:13.695Z,988.52
2023-05-18T01:13:45.087Z,988.52
2023-05-18T01:14:17.890Z,988.21
2023-05-18T01:14:48.861Z,988.21
2023-05-18T01:15:22.685Z,988.01
2023-05-18T01:15:53.210Z,988.01
2023-05-18T01:16:25.930Z,988.42
2023-05-18T01:16:57.108Z,988.42
2023-05-18T01:17:29.741Z,988.32
2023-05-18T01:18:01.314Z,988.32
2023-05-18T01:18:33.719Z,988.42
2023-05-18T01:19:05.078Z,988.32
2023-05-18T01:19:37.866Z,988.32
2023-05-18T01:20:09.251Z,988.11
2023-05-18T01:20:41.742Z,988.11
2023-05-18T01:21:13.055Z,988.21
2023-05-18T01:21:45.839Z,988.21
2023-05-18T01:22:16.949Z,988.32
2023-05-18T01:22:49.802Z,988.32
2023-05-18T01:23:21.032Z,988.11
2023-05-18T01:23:53.666Z,988.11
2023-05-18T01:24:24.996Z,988.21
2023-05-18T01:24:41.144Z,988.21
2023-05-18T01:25:13.257Z,988.11
2023-05-18T01:25:45.028Z,988.11
2023-05-18T01:26:17.133Z,988.21
2023-05-18T01:26:49.062Z,988.21
2023-05-18T01:27:21.818Z,988.32
2023-05-18T01:27:53.110Z,988.32
2023-05-18T01:28:25.937Z,988.21
2023-05-18T01:28:57.042Z,988.21
2023-05-18T01:29:29.894Z,988.32
2023-05-18T01:30:02.558Z,988.32
2023-05-18T01:30:33.932Z,988.21
2023-05-18T01:31:05.019Z,988.42
2023-05-18T01:31:38.557Z,988.42
2023-05-18T01:32:08.979Z,988.42
2023-05-18T01:32:41.860Z,988.42
2023-05-18T01:33:13.265Z,988.32
2023-05-18T01:33:45.966Z,988.32
2023-05-18T01:34:16.993Z,988.21
2023-05-18T01:34:49.929Z,988.21
2023-05-18T01:35:21.427Z,988.32
2023-05-18T01:35:53.722Z,988.32
2023-05-18T01:36:24.979Z,988.11
2023-05-18T01:36:57.839Z,988.11
2023-05-18T01:37:29.241Z,988.11
2023-05-18T01:38:01.976Z,988.11
2023-05-18T01:38:33.019Z,988.21
2023-05-18T01:39:05.858Z,988.21
2023-05-18T01:39:37.093Z,988.21
2023-05-18T01:40:11.068Z,988.21
2023-05-18T01:40:41.069Z,988.21
2023-05-18T01:41:13.838Z,988.32
2023-05-18T01:41:44.900Z,988.32
2023-05-18T01:42:17.801Z,988.32
2023-05-18T01:42:49.054Z,988.32
2023-05-18T01:43:21.746Z,988.21
2023-05-18T01:43:53.157Z,988.21
2023-05-18T01:44:26.027Z,988.32
2023-05-18T01:44:57.140Z,988.32
2023-05-18T01:45:31.596Z,988.21
2023-05-18T01:46:01.137Z,988.21
2023-05-18T01:46:34.200Z,988.42
2023-05-18T01:47:05.005Z,988.11
2023-05-18T01:47:38.158Z,988.11
2023-05-18T01:48:09.243Z,988.32
2023-05-18T01:48:41.980Z,988.32
2023-05-18T01:49:13.023Z,988.21
2023-05-18T01:49:45.967Z,988.21
2023-05-18T01:50:17.373Z,988.21
2023-05-18T01:50:49.957Z,988.21
2023-05-18T01:51:21.171Z,988.32
2023-05-18T01:51:53.891Z,988.32
2023-05-18T01:52:25.085Z,988.11
2023-05-18T01:52:57.835Z,988.11
2023-05-18T01:53:29.164Z,988.01
2023-05-18T01:54:02.094Z,988.01
2023-05-18T01:54:33.082Z,988.11
2023-05-18T01:55:06.002Z,988.21
2023-05-18T01:55:37.177Z,988.21
2023-05-18T01:56:10.035Z,988.11
2023-05-18T01:56:41.185Z,988.11
2023-05-18T01:57:14.315Z,988.21
2023-05-18T01:57:45.122Z,988.21
2023-05-18T01:58:17.895Z,988.21
2023-05-18T01:58:49.145Z,988.21
2023-05-18T01:59:22.056Z,988.21
2023-05-18T01:59:52.986Z,988.21
2023-05-18T02:00:27.388Z,988.21
2023-05-18T02:00:57.475Z,988.21
2023-05-18T02:01:29.744Z,988.01
2023-05-18T02:02:01.159Z,988.01
2023-05-18T02:02:34.069Z,988.11
2023-05-18T02:03:05.270Z,988.11
2023-05-18T02:03:38.534Z,988.11
2023-05-18T02:04:09.139Z,988.01
2023-05-18T02:04:42.017Z,988.01
2023-05-18T02:05:13.159Z,988.01
2023-05-18T02:05:45.800Z,988.01
2023-05-18T02:06:17.084Z,988.32
2023-05-18T02:06:49.778Z,988.32
2023-05-18T02:07:21.012Z,987.91
2023-05-18T02:07:53.717Z,987.91
2023-05-18T02:08:25.191Z,987.91
2023-05-18T02:08:57.863Z,987.91
2023-05-18T02:09:28.981Z,988.11
2023-05-18T02:10:02.139Z,988.11
2023-05-18T02:10:33.114Z,988.01
2023-05-18T02:11:05.801Z,988.21
2023-05-18T02:11:37.084Z,988.21
2023-05-18T02:12:09.949Z,988.21
2023-05-18T02:12:40.998Z,988.21
2023-05-18T02:13:13.947Z,988.01
2023-05-18T02:13:45.037Z,988.01
2023-05-18T02:14:17.961Z,988.11
2023-05-18T02:14:48.929Z,988.11
2023-05-18T02:15:22.997Z,988.01
2023-05-18T02:15:53.107Z,988.01
2023-05-18T02:16:25.881Z,988.11
2023-05-18T02:16:57.077Z,988.11
2023-05-18T02:17:30.028Z,988.01
2023-05-18T02:18:00.981Z,988.01
2023-05-18T02:18:33.869Z,988.01
2023-05-18T02:19:05.129Z,988.01
2023-05-18T02:19:38.055Z,988.01
2023-05-18T02:20:09.199Z,988.01
2023-05-18T02:20:41.966Z,988.01
2023-05-18T02:21:13.080Z,987.91
2023-05-18T02:21:45.775Z,987.91
2023-05-18T02:22:17.039Z,987.91
2023-05-18T02:22:49.882Z,987.91
2023-05-18T02:23:21.141Z,987.74
2023-05-18T02:23:53.851Z,987.74
2023-05-18T02:24:25.172Z,987.81
2023-05-18T02:24:57.925Z,987.81
2023-05-18T02:25:29.579Z,987.91
2023-05-18T02:26:02.025Z,987.91
2023-05-18T02:26:33.104Z,987.91
2023-05-18T02:27:06.081Z,987.81
2023-05-18T02:27:36.924Z,987.81
2023-05-18T02:28:09.832Z,988.01
2023-05-18T02:28:41.182Z,988.01
2023-05-18T02:29:13.994Z,988.01
2023-05-18T02:29:45.093Z,988.01
2023-05-18T02:30:18.574Z,988.01
2023-05-18T02:30:49.182Z,988.01
2023-05-18T02:31:22.107Z,987.74
2023-05-18T02:31:53.216Z,987.74
2023-05-18T02:32:26.165Z,988.01
2023-05-18T02:32:57.084Z,988.01
2023-05-18T02:33:30.096Z,988.01
2023-05-18T02:34:01.205Z,988.01
2023-05-18T02:34:33.808Z,988.11
2023-05-18T02:35:05.309Z,987.91
2023-05-18T02:35:38.099Z,987.91
2023-05-18T02:36:09.189Z,987.81
2023-05-18T02:36:41.789Z,987.81
2023-05-18T02:37:13.150Z,988.11
2023-05-18T02:37:46.100Z,988.11
2023-05-18T02:38:17.084Z,987.91
2023-05-18T02:38:49.905Z,987.91
2023-05-18T02:39:21.148Z,988.01
2023-05-18T02:39:54.105Z,988.01
2023-05-18T02:40:25.376Z,987.64
2023-05-18T02:40:58.040Z,987.64
2023-05-18T02:41:29.208Z,988.01
2023-05-18T02:42:01.917Z,988.01
2023-05-18T02:42:33.194Z,988.21
2023-05-18T02:43:06.121Z,988.11
2023-05-18T02:43:36.983Z,988.11
2023-05-18T02:44:09.810Z,988.01
2023-05-18T02:44:41.145Z,988.01
2023-05-18T02:45:14.815Z,988.11
2023-05-18T02:45:45.120Z,988.11
2023-05-18T02:46:17.898Z,988.21
2023-05-18T02:46:49.071Z,988.21
2023-05-18T02:47:21.991Z,987.81
2023-05-18T02:47:53.017Z,987.81
2023-05-18T02:48:25.980Z,987.91
2023-05-18T02:48:57.227Z,987.91
2023-05-18T02:49:29.996Z,988.01
2023-05-18T02:50:01.359Z,988.01
2023-05-18T02:50:33.951Z,988.21
2023-05-18T02:51:04.919Z,987.74
2023-05-18T02:51:37.840Z,987.74
2023-05-18T02:52:09.044Z,987.91
2023-05-18T02:52:42.090Z,987.91
2023-05-18T02:53:12.989Z,987.91
2023-05-18T02:53:45.836Z,987.91
2023-05-18T02:54:17.182Z,988.11
2023-05-18T02:54:49.900Z,988.11
2023-05-18T02:55:21.306Z,988.01
2023-05-18T02:55:53.714Z,988.01
2023-05-18T02:56:25.114Z,987.91
2023-05-18T02:56:57.757Z,987.91
2023-05-18T02:57:29.033Z,987.91
2023-05-18T02:58:01.933Z,987.91
2023-05-18T02:58:32.911Z,988.11
2023-05-18T02:59:07.949Z,988.01
2023-05-18T02:59:37.089Z,988.01
2023-05-18T03:00:10.745Z,988.11
2023-05-18T03:00:41.069Z,988.11
2023-05-18T03:01:13.892Z,987.91
2023-05-18T03:01:45.220Z,987.91
2023-05-18T03:02:17.988Z,987.91
2023-05-18T03:02:49.094Z,987.91
2023-05-18T03:03:21.992Z,988.01
2023-05-18T03:03:53.161Z,988.01
2023-05-18T03:04:25.620Z,987.81
2023-05-18T03:04:56.935Z,987.81
2023-05-18T03:05:30.681Z,987.91
2023-05-18T03:06:01.131Z,987.91
2023-05-18T03:06:33.883Z,987.91
2023-05-18T03:07:05.106Z,988.01
2023-05-18T03:07:38.058Z,988.01
2023-05-18T03:08:08.939Z,988.01
2023-05-18T03:08:41.931Z,988.01
2023-05-18T03:09:13.107Z,987.91
2023-05-18T03:09:46.441Z,987.91
2023-05-18T03:10:17.245Z,988.21
2023-05-18T03:10:49.608Z,988.21
2023-05-18T03:11:20.754Z,988.01
2023-05-18T03:11:54.074Z,988.01
2023-05-18T03:12:25.097Z,988.01
2023-05-18T03:12:58.030Z,988.01
2023-05-18T03:13:29.094Z,988.21
2023-05-18T03:14:01.822Z,988.21
2023-05-18T03:14:33.090Z,988.21
2023-05-18T03:15:06.998Z,988.11
2023-05-18T03:15:37.431Z,988.11
2023-05-18T03:16:09.898Z,988.11
2023-05-18T03:16:41.289Z,988.11
2023-05-18T03:17:14.017Z,987.81
2023-05-18T03:17:44.997Z,987.81
2023-05-18T03:18:17.970Z,987.91
2023-05-18T03:18:49.037Z,987.91
2023-05-18T03:19:21.897Z,988.11
2023-05-18T03:19:52.992Z,988.11
2023-05-18T03:20:26.283Z,988.11
2023-05-18T03:20:57.002Z,988.11
2023-05-18T03:21:29.911Z,988.11
2023-05-18T03:22:01.282Z,988.11
2023-05-18T03:22:33.761Z,987.91
2023-05-18T03:23:05.002Z,988.11
2023-05-18T03:23:38.777Z,988.11
2023-05-18T03:24:09.102Z,988.01
2023-05-18T03:24:41.829Z,988.01
2023-05-18T03:25:13.311Z,988.11
2023-05-18T03:25:45.913Z,988.11
2023-05-18T03:26:16.990Z,987.91
2023-05-18T03:26:49.852Z,987.91
2023-05-18T03:27:21.021Z,988.01
2023-05-18T03:27:54.145Z,988.01
2023-05-18T03:28:25.049Z,987.91
2023-05-18T03:28:57.869Z,987.91
2023-05-18T03:29:30.673Z,988.11
2023-05-18T03:30:03.235Z,988.11
2023-05-18T03:30:33.166Z,987.81
2023-05-18T03:31:05.990Z,988.21
2023-05-18T03:31:37.044Z,988.21
2023-05-18T03:32:09.850Z,988.11
2023-05-18T03:32:41.180Z,988.11
2023-05-18T03:33:14.056Z,988.01
2023-05-18T03:33:45.279Z,988.01
2023-05-18T03:34:18.051Z,988.01
2023-05-18T03:34:49.304Z,988.01
2023-05-18T03:35:22.409Z,987.81
2023-05-18T03:35:53.392Z,987.81
2023-05-18T03:36:26.041Z,987.91
2023-05-18T03:36:57.309Z,987.91
2023-05-18T03:37:30.347Z,987.91
2023-05-18T03:38:01.321Z,987.91
2023-05-18T03:38:34.033Z,987.91
2023-05-18T03:39:05.243Z,988.01
2023-05-18T03:39:38.866Z,988.01
2023-05-18T03:40:09.578Z,988.11
2023-05-18T03:40:42.094Z,988.11
2023-05-18T03:41:13.255Z,988.01
2023-05-18T03:41:46.192Z,988.01
2023-05-18T03:42:17.129Z,988.11
2023-05-18T03:42:50.256Z,988.11
2023-05-18T03:43:21.354Z,988.01
2023-05-18T03:43:54.001Z,988.01
2023-05-18T03:44:25.136Z,988.01
2023-05-18T03:44:58.003Z,988.01
2023-05-18T03:45:30.594Z,988.11
2023-05-18T03:46:02.111Z,988.11
2023-05-18T03:46:33.350Z,988.21
2023-05-18T03:47:06.322Z,988.01
2023-05-18T03:47:37.441Z,988.01
2023-05-18T03:48:10.399Z,988.01
2023-05-18T03:48:41.295Z,988.01
2023-05-18T03:49:14.139Z,987.91
2023-05-18T03:49:45.288Z,987.91
2023-05-18T03:50:18.299Z,988.11
2023-05-18T03:50:49.306Z,988.11
2023-05-18T03:51:21.968Z,988.11
2023-05-18T03:51:53.309Z,988.11
2023-05-18T03:52:26.290Z,988.11
2023-05-18T03:52:57.417Z,988.11
2023-05-18T03:53:30.127Z,988.11
2023-05-18T03:54:01.315Z,988.11
2023-05-18T03:54:34.179Z,988.11
2023-05-18T03:55:05.554Z,988.01
2023-05-18T03:55:38.111Z,988.01
2023-05-18T03:56:09.279Z,988.01
2023-05-18T03:56:42.300Z,988.01
2023-05-18T03:57:13.343Z,988.11
2023-05-18T03:57:46.118Z,988.11
2023-05-18T03:58:17.320Z,988.11
2023-05-18T03:58:50.201Z,988.11
2023-05-18T03:59:21.213Z,988.11
2023-05-18T03:59:54.101Z,988.11
2023-05-18T04:00:26.329Z,988.01
2023-05-18T04:00:58.242Z,988.01
2023-05-18T04:01:29.291Z,987.91
2023-05-18T04:02:02.177Z,987.91
2023-05-18T04:02:33.347Z,988.21
2023-05-18T04:03:06.267Z,988.11
2023-05-18T04:03:37.406Z,988.11
2023-05-18T04:04:10.144Z,988.01
2023-05-18T04:04:41.317Z,988.01
2023-05-18T04:05:14.466Z,988.01
2023-05-18T04:05:45.403Z,988.01
2023-05-18T04:06:17.958Z,988.11
2023-05-18T04:06:49.252Z,988.11
2023-05-18T04:07:22.133Z,987.81
2023-05-18T04:07:53.424Z,987.81
2023-05-18T04:08:25.938Z,988.11
2023-05-18T04:08:57.369Z,988.11
2023-05-18T04:09:30.019Z,988.01
2023-05-18T04:10:01.555Z,988.01
2023-05-18T04:10:34.023Z,988.11
2023-05-18T04:11:05.288Z,988.11
2023-05-18T04:11:38.273Z,988.11
2023-05-18T04:12:09.304Z,988.32
2023-05-18T04:12:42.419Z,988.32
2023-05-18T04:13:13.437Z,988.11
2023-05-18T04:13:45.926Z,988.11
2023-05-18T04:14:17.285Z,987.91
2023-05-18T04:14:50.139Z,987.91
2023-05-18T04:15:22.092Z,988.32
2023-05-18T04:15:54.094Z,988.32
2023-05-18T04:16:25.288Z,988.21
2023-05-18T04:16:58.172Z,988.21
2023-05-18T04:17:29.210Z,988.42
2023-05-18T04:18:02.129Z,988.42
2023-05-18T04:18:33.290Z,988.21
2023-05-18T04:19:08.157Z,988.21
2023-05-18T04:19:37.223Z,988.21
2023-05-18T04:20:10.322Z,988.01
2023-05-18T04:20:41.297Z,988.01
2023-05-18T04:21:14.054Z,988.11
2023-05-18T04:21:45.362Z,988.11
2023-05-18T04:22:18.322Z,988.42
2023-05-18T04:22:49.464Z,988.42
2023-05-18T04:23:22.107Z,988.21
2023-05-18T04:23:53.273Z,988.21
2023-05-18T04:24:26.160Z,988.21
2023-05-18T04:24:57.329Z,988.21
2023-05-18T04:25:13.603Z,988.32
2023-05-18T04:25:45.334Z,988.32
2023-05-18T04:26:17.258Z,988.21
2023-05-18T04:26:50.180Z,988.21
2023-05-18T04:27:21.358Z,988.32
2023-05-18T04:27:54.170Z,988.32
2023-05-18T04:28:25.264Z,988.21
2023-05-18T04:28:58.165Z,988.21
2023-05-18T04:29:29.069Z,988.11
2023-05-18T04:30:03.585Z,988.11
2023-05-18T04:30:33.495Z,988.21
2023-05-18T04:31:06.276Z,988.42
2023-05-18T04:31:37.291Z,988.42
2023-05-18T04:32:10.378Z,988.42
2023-05-18T04:32:41.387Z,988.42
2023-05-18T04:33:14.191Z,988.42
2023-05-18T04:33:45.399Z,988.42
2023-05-18T04:34:18.120Z,988.52
2023-05-18T04:34:49.666Z,988.52
2023-05-18T04:35:22.291Z,988.32
2023-05-18T04:35:53.363Z,988.32
2023-05-18T04:36:26.297Z,988.52
2023-05-18T04:36:57.286Z,988.52
2023-05-18T04:37:13.544Z,988.21
2023-05-18T04:37:45.299Z,988.21
2023-05-18T04:38:17.304Z,988.42
2023-05-18T04:38:50.499Z,988.42
2023-05-18T04:39:21.501Z,988.52
2023-05-18T04:39:54.089Z,988.52
2023-05-18T04:40:25.645Z,988.42
2023-05-18T04:40:58.285Z,988.42
2023-05-18T04:41:29.298Z,988.52
2023-05-18T04:42:02.296Z,988.52
2023-05-18T04:42:33.386Z,988.42
2023-05-18T04:43:06.470Z,988.42
2023-05-18T04:43:37.251Z,988.42
2023-05-18T04:44:10.204Z,988.52
2023-05-18T04:44:41.371Z,988.52
2023-05-18T04:45:14.849Z,988.52
2023-05-18T04:45:45.502Z,988.52
2023-05-18T04:46:18.059Z,988.42
2023-05-18T04:46:49.470Z,988.42
2023-05-18T04:47:22.095Z,988.52
2023-05-18T04:47:53.912Z,988.52
2023-05-18T04:48:26.090Z,988.52
2023-05-18T04:48:57.349Z,988.52
2023-05-18T04:49:13.508Z,988.42
2023-05-18T04:49:45.414Z,988.42
2023-05-18T04:50:17.555Z,988.52
2023-05-18T04:50:53.282Z,988.52
2023-05-18T04:51:21.554Z,988.42
2023-05-18T04:51:54.215Z,988.42
2023-05-18T04:52:25.280Z,988.32
2023-05-18T04:52:58.489Z,988.32
2023-05-18T04:53:29.489Z,988.62
2023-05-18T04:54:02.192Z,988.62
2023-05-18T04:54:33.415Z,988.21
2023-05-18T04:55:06.523Z,988.42
2023-05-18T04:55:37.253Z,988.42
2023-05-18T04:56:10.140Z,988.52
2023-05-18T04:56:41.340Z,988.52
2023-05-18T04:57:14.127Z,988.42
2023-05-18T04:57:45.325Z,988.42
2023-05-18T04:58:18.052Z,988.42
2023-05-18T04:58:49.437Z,988.42
2023-05-18T04:59:22.021Z,988.52
2023-05-18T04:59:53.272Z,988.52
2023-05-18T05:00:27.475Z,988.52
2023-05-18T05:00:57.447Z,988.52
2023-05-18T05:01:30.112Z,988.52
2023-05-18T05:02:01.384Z,988.52
2023-05-18T05:02:34.382Z,988.52
2023-05-18T05:03:05.409Z,988.32
2023-05-18T05:03:38.179Z,988.32
2023-05-18T05:04:09.346Z,988.52
2023-05-18T05:04:42.301Z,988.52
2023-05-18T05:05:13.600Z,988.52
2023-05-18T05:05:46.086Z,988.52
2023-05-18T05:06:17.332Z,988.62
2023-05-18T05:06:49.992Z,988.62
2023-05-18T05:07:21.232Z,988.32
2023-05-18T05:07:54.240Z,988.32
2023-05-18T05:08:25.227Z,988.62
2023-05-18T05:08:57.936Z,988.62
2023-05-18T05:09:29.262Z,988.52
2023-05-18T05:10:02.561Z,988.52
2023-05-18T05:10:33.296Z,988.52
2023-05-18T05:11:06.175Z,988.52
2023-05-18T05:11:37.325Z,988.52
2023-05-18T05:12:10.132Z,988.52
2023-05-18T05:12:41.268Z,988.52
2023-05-18T05:13:14.170Z,988.32
2023-05-18T05:13:45.328Z,988.32
2023-05-18T05:14:18.004Z,988.72
2023-05-18T05:14:49.299Z,988.72
2023-05-18T05:15:23.087Z,988.52
2023-05-18T05:15:53.340Z,988.52
2023-05-18T05:16:26.272Z,988.52
2023-05-18T05:16:57.261Z,988.52
2023-05-18T05:17:30.078Z,988.52
2023-05-18T05:18:01.213Z,988.52
2023-05-18T05:18:34.201Z,988.42
2023-05-18T05:19:05.315Z,988.32
2023-05-18T05:19:39.159Z,988.32
2023-05-18T05:20:09.591Z,988.42
2023-05-18T05:20:42.381Z,988.42
2023-05-18T05:21:13.259Z,988.52
2023-05-18T05:21:46.228Z,988.52
2023-05-18T05:22:17.405Z,988.42
2023-05-18T05:22:50.301Z,988.42
2023-05-18T05:23:21.220Z,988.62
2023-05-18T05:23:54.094Z,988.62
2023-05-18T05:24:25.355Z,988.52
2023-05-18T05:24:58.116Z,988.52
2023-05-18T05:25:29.725Z,988.62
2023-05-18T05:26:02.086Z,988.62
2023-05-18T05:26:33.534Z,988.62
2023-05-18T05:27:06.110Z,988.52
2023-05-18T05:27:37.616Z,988.52
2023-05-18T05:28:10.519Z,988.52
2023-05-18T05:28:41.546Z,988.52
2023-05-18T05:29:14.462Z,988.62
2023-05-18T05:29:45.652Z,988.62
2023-05-18T05:30:19.538Z,988.62
2023-05-18T05:30:49.609Z,988.62
2023-05-18T05:31:22.537Z,988.82
2023-05-18T05:31:53.694Z,988.82
2023-05-18T05:32:26.309Z,988.52
2023-05-18T05:32:57.723Z,988.52
2023-05-18T05:33:30.345Z,988.32
2023-05-18T05:34:01.548Z,988.32
2023-05-18T05:34:34.577Z,988.62
2023-05-18T05:35:05.795Z,988.82
2023-05-18T05:35:38.731Z,988.82
2023-05-18T05:36:09.718Z,988.52
2023-05-18T05:36:42.442Z,988.52
2023-05-18T05:37:13.679Z,988.82
2023-05-18T05:37:46.237Z,988.82
2023-05-18T05:38:17.617Z,988.42
2023-05-18T05:38:50.507Z,988.42
2023-05-18T05:39:21.542Z,988.42
2023-05-18T05:39:54.328Z,988.42
2023-05-18T05:40:25.892Z,988.52
2023-05-18T05:40:58.355Z,988.52
2023-05-18T05:41:31.082Z,988.62
2023-05-18T05:42:02.401Z,988.62
2023-05-18T05:42:33.598Z,988.52
2023-05-18T05:43:07.565Z,988.52
2023-05-18T05:43:37.589Z,988.52
2023-05-18T05:44:10.245Z,988.82
2023-05-18T05:44:41.621Z,988.82
2023-05-18T05:45:15.446Z,988.82
2023-05-18T05:45:45.879Z,988.82
2023-05-18T05:46:18.299Z,988.42
2023-05-18T05:46:49.634Z,988.42
2023-05-18T05:47:22.661Z,988.62
2023-05-18T05:47:53.612Z,988.62
2023-05-18T05:48:26.364Z,988.72
2023-05-18T05:48:57.653Z,988.72
2023-05-18T05:49:30.521Z,988.82
2023-05-18T05:50:02.087Z,988.82
2023-05-18T05:50:34.407Z,988.62
2023-05-18T05:51:05.671Z,988.62
2023-05-18T05:51:38.367Z,988.62
2023-05-18T05:52:09.663Z,988.62
2023-05-18T05:52:42.690Z,988.62
2023-05-18T05:53:13.713Z,988.62
2023-05-18T05:53:46.406Z,988.62
2023-05-18T05:54:17.765Z,988.42
2023-05-18T05:54:50.649Z,988.42
2023-05-18T05:55:22.052Z,988.52
2023-05-18T05:55:54.336Z,988.52
2023-05-18T05:56:25.959Z,988.42
2023-05-18T05:56:58.342Z,988.42
2023-05-18T05:57:29.729Z,988.52
2023-05-18T05:58:02.477Z,988.52
2023-05-18T05:58:33.569Z,988.62
2023-05-18T05:59:06.541Z,988.32
2023-05-18T05:59:37.763Z,988.32
2023-05-18T06:00:11.617Z,988.72
2023-05-18T06:00:41.689Z,988.72
2023-05-18T06:01:14.737Z,988.52
2023-05-18T06:01:45.744Z,988.52
2023-05-18T06:02:18.546Z,988.62
2023-05-18T06:02:49.782Z,988.62
2023-05-18T06:03:22.537Z,988.52
2023-05-18T06:03:53.605Z,988.52
2023-05-18T06:04:26.679Z,988.72
2023-05-18T06:04:57.649Z,988.72
2023-05-18T06:05:31.091Z,988.52
2023-05-18T06:06:01.746Z,988.52
2023-05-18T06:06:34.742Z,988.62
2023-05-18T06:07:05.807Z,988.62
2023-05-18T06:07:39.420Z,988.62
2023-05-18T06:08:09.694Z,988.62
2023-05-18T06:08:42.486Z,988.62
2023-05-18T06:09:13.532Z,988.72
2023-05-18T06:09:46.297Z,988.72
2023-05-18T06:10:17.929Z,988.52
2023-05-18T06:10:50.348Z,988.52
2023-05-18T06:11:21.640Z,988.52
2023-05-18T06:11:54.481Z,988.52
2023-05-18T06:12:25.434Z,988.52
2023-05-18T06:12:58.358Z,988.52
2023-05-18T06:13:29.764Z,988.42
2023-05-18T06:14:02.485Z,988.42
2023-05-18T06:14:33.556Z,988.52
2023-05-18T06:15:07.657Z,988.52
2023-05-18T06:15:37.743Z,988.52
2023-05-18T06:16:10.336Z,988.72
2023-05-18T06:16:41.683Z,988.72
2023-05-18T06:17:14.783Z,988.62
2023-05-18T06:17:45.782Z,988.62
2023-05-18T06:18:18.426Z,988.62
2023-05-18T06:18:49.506Z,988.62
2023-05-18T06:19:23.614Z,988.82
2023-05-18T06:19:53.572Z,988.82
2023-05-18T06:20:26.644Z,988.52
2023-05-18T06:20:57.708Z,988.52
2023-05-18T06:21:30.508Z,988.62
2023-05-18T06:22:01.535Z,988.62
2023-05-18T06:22:34.540Z,988.62
2023-05-18T06:23:05.762Z,988.72
2023-05-18T06:23:41.022Z,988.72
2023-05-18T06:24:09.642Z,988.72
2023-05-18T06:24:42.375Z,988.72
2023-05-18T06:25:13.989Z,988.52
2023-05-18T06:25:46.453Z,988.52
2023-05-18T06:26:17.649Z,988.62
2023-05-18T06:26:52.606Z,988.62
2023-05-18T06:27:21.642Z,988.93
2023-05-18T06:27:54.406Z,988.93
2023-05-18T06:28:25.729Z,988.93
2023-05-18T06:28:58.436Z,988.93
2023-05-18T06:29:29.408Z,988.52
2023-05-18T06:30:03.813Z,988.52
2023-05-18T06:30:33.901Z,988.82
2023-05-18T06:31:06.423Z,988.82
2023-05-18T06:31:37.754Z,988.82
2023-05-18T06:32:10.563Z,988.62
2023-05-18T06:32:41.661Z,988.62
2023-05-18T06:33:14.597Z,988.72
2023-05-18T06:33:45.732Z,988.72
2023-05-18T06:34:18.433Z,988.72
2023-05-18T06:34:49.612Z,988.72
2023-05-18T06:35:22.669Z,988.62
2023-05-18T06:35:53.782Z,988.62
2023-05-18T06:36:26.430Z,988.62
2023-05-18T06:36:57.699Z,988.62
2023-05-18T06:37:30.770Z,988.93
2023-05-18T06:38:01.696Z,988.93